sensor_id;sensor_type;location;lat;lon;timestamp;P1;durP1;ratioP1;P2;durP2;ratioP2
61338;SDS011;47213;52.362;4.606;2023-07-13T00:01:16;20.50;;;4.60;;
61338;SDS011;47213;52.362;4.606;2023-07-13T00:11:17;24.40;;;5.30;;
61338;SDS011;47213;52.362;4.606;2023-07-13T00:16:16;12.90;;;3.30;;
61338;SDS011;47213;52.362;4.606;2023-07-13T00:21:16;12.90;;;3.30;;
61338;SDS011;47213;52.362;4.606;2023-07-13T00:31:16;12.90;;;2.40;;
61338;SDS011;47213;52.362;4.606;2023-07-13T00:36:16;9.80;;;2.10;;
61338;SDS011;47213;52.362;4.606;2023-07-13T00:41:16;9.80;;;2.10;;
61338;SDS011;47213;52.362;4.606;2023-07-13T00:46:26;9.30;;;1.90;;
61338;SDS011;47213;52.362;4.606;2023-07-13T00:51:19;9.30;;;1.90;;
61338;SDS011;47213;52.362;4.606;2023-07-13T01:06:16;12.60;;;2.40;;
61338;SDS011;47213;52.362;4.606;2023-07-13T01:26:16;10.50;;;2.20;;
61338;SDS011;47213;52.362;4.606;2023-07-13T01:31:16;10.50;;;2.20;;
61338;SDS011;47213;52.362;4.606;2023-07-13T01:41:16;9.40;;;2.10;;
61338;SDS011;47213;52.362;4.606;2023-07-13T01:46:16;9.40;;;2.10;;
61338;SDS011;47213;52.362;4.606;2023-07-13T01:51:17;8.00;;;2.10;;
61338;SDS011;47213;52.362;4.606;2023-07-13T01:56:16;8.00;;;2.10;;
61338;SDS011;47213;52.362;4.606;2023-07-13T02:01:16;8.40;;;2.00;;
61338;SDS011;47213;52.362;4.606;2023-07-13T02:06:16;8.40;;;2.00;;
61338;SDS011;47213;52.362;4.606;2023-07-13T02:21:16;10.20;;;2.30;;
61338;SDS011;47213;52.362;4.606;2023-07-13T02:26:16;10.20;;;2.30;;
61338;SDS011;47213;52.362;4.606;2023-07-13T02:31:16;8.00;;;2.30;;
61338;SDS011;47213;52.362;4.606;2023-07-13T02:41:16;10.80;;;2.50;;
61338;SDS011;47213;52.362;4.606;2023-07-13T02:46:16;10.80;;;2.50;;
61338;SDS011;47213;52.362;4.606;2023-07-13T02:51:16;12.50;;;2.50;;
61338;SDS011;47213;52.362;4.606;2023-07-13T03:21:16;12.10;;;2.90;;
61338;SDS011;47213;52.362;4.606;2023-07-13T03:41:16;12.70;;;3.20;;
61338;SDS011;47213;52.362;4.606;2023-07-13T03:46:17;12.70;;;3.20;;
61338;SDS011;47213;52.362;4.606;2023-07-13T03:51:17;12.30;;;3.30;;
61338;SDS011;47213;52.362;4.606;2023-07-13T03:56:18;12.30;;;3.30;;
61338;SDS011;47213;52.362;4.606;2023-07-13T04:11:18;13.00;;;3.50;;
61338;SDS011;47213;52.362;4.606;2023-07-13T04:21:16;12.30;;;3.30;;
61338;SDS011;47213;52.362;4.606;2023-07-13T04:31:17;14.10;;;3.40;;
61338;SDS011;47213;52.362;4.606;2023-07-13T04:36:16;14.10;;;3.40;;
61338;SDS011;47213;52.362;4.606;2023-07-13T04:41:16;13.10;;;3.40;;
61338;SDS011;47213;52.362;4.606;2023-07-13T04:51:16;12.90;;;2.90;;
61338;SDS011;47213;52.362;4.606;2023-07-13T05:06:16;12.60;;;3.10;;
61338;SDS011;47213;52.362;4.606;2023-07-13T05:11:17;12.60;;;3.30;;
61338;SDS011;47213;52.362;4.606;2023-07-13T05:16:16;12.60;;;3.30;;
61338;SDS011;47213;52.362;4.606;2023-07-13T05:21:16;11.70;;;3.00;;
61338;SDS011;47213;52.362;4.606;2023-07-13T05:26:17;11.70;;;3.00;;
61338;SDS011;47213;52.362;4.606;2023-07-13T05:36:17;11.40;;;2.90;;
61338;SDS011;47213;52.362;4.606;2023-07-13T05:41:17;12.90;;;3.00;;
61338;SDS011;47213;52.362;4.606;2023-07-13T05:46:18;12.90;;;3.00;;
61338;SDS011;47213;52.362;4.606;2023-07-13T05:51:17;10.90;;;3.20;;
61338;SDS011;47213;52.362;4.606;2023-07-13T05:56:17;10.90;;;3.20;;
61338;SDS011;47213;52.362;4.606;2023-07-13T06:01:17;9.00;;;3.00;;
61338;SDS011;47213;52.362;4.606;2023-07-13T06:06:17;9.00;;;3.00;;
61338;SDS011;47213;52.362;4.606;2023-07-13T06:11:19;9.70;;;2.70;;
61338;SDS011;47213;52.362;4.606;2023-07-13T06:16:17;9.70;;;2.70;;
61338;SDS011;47213;52.362;4.606;2023-07-13T06:21:19;9.80;;;2.70;;
61338;SDS011;47213;52.362;4.606;2023-07-13T06:31:17;10.50;;;2.90;;
61338;SDS011;47213;52.362;4.606;2023-07-13T06:36:17;10.50;;;2.90;;
61338;SDS011;47213;52.362;4.606;2023-07-13T06:46:17;9.10;;;2.90;;
61338;SDS011;47213;52.362;4.606;2023-07-13T06:51:17;8.60;;;2.50;;
61338;SDS011;47213;52.362;4.606;2023-07-13T06:56:17;8.60;;;2.50;;
61338;SDS011;47213;52.362;4.606;2023-07-13T07:01:17;11.20;;;2.80;;
61338;SDS011;47213;52.362;4.606;2023-07-13T07:06:19;11.20;;;2.80;;
61338;SDS011;47213;52.362;4.606;2023-07-13T07:16:18;9.20;;;2.80;;
61338;SDS011;47213;52.362;4.606;2023-07-13T07:21:17;10.60;;;2.90;;
61338;SDS011;47213;52.362;4.606;2023-07-13T07:26:17;10.60;;;2.90;;
61338;SDS011;47213;52.362;4.606;2023-07-13T07:31:17;8.60;;;2.40;;
61338;SDS011;47213;52.362;4.606;2023-07-13T07:36:17;8.60;;;2.40;;
61338;SDS011;47213;52.362;4.606;2023-07-13T07:41:17;9.60;;;2.50;;
61338;SDS011;47213;52.362;4.606;2023-07-13T07:46:17;9.60;;;2.50;;
61338;SDS011;47213;52.362;4.606;2023-07-13T07:51:17;9.40;;;2.60;;
61338;SDS011;47213;52.362;4.606;2023-07-13T08:01:17;9.00;;;2.50;;
61338;SDS011;47213;52.362;4.606;2023-07-13T08:06:17;9.00;;;2.50;;
61338;SDS011;47213;52.362;4.606;2023-07-13T08:16:17;10.40;;;2.60;;
61338;SDS011;47213;52.362;4.606;2023-07-13T08:21:17;9.30;;;2.80;;
61338;SDS011;47213;52.362;4.606;2023-07-13T08:26:17;9.30;;;2.80;;
61338;SDS011;47213;52.362;4.606;2023-07-13T08:52:05;9.80;;;2.50;;
61338;SDS011;47213;52.362;4.606;2023-07-13T09:06:20;9.30;;;2.70;;
61338;SDS011;47213;52.362;4.606;2023-07-13T09:16:17;10.10;;;3.10;;
61338;SDS011;47213;52.362;4.606;2023-07-13T09:21:22;11.90;;;3.00;;
61338;SDS011;47213;52.362;4.606;2023-07-13T09:26:19;11.90;;;3.00;;
61338;SDS011;47213;52.362;4.606;2023-07-13T09:31:33;9.10;;;2.50;;
61338;SDS011;47213;52.362;4.606;2023-07-13T09:41:23;8.50;;;2.50;;
61338;SDS011;47213;52.362;4.606;2023-07-13T09:46:21;8.50;;;2.50;;
61338;SDS011;47213;52.362;4.606;2023-07-13T09:51:17;9.90;;;2.70;;
61338;SDS011;47213;52.362;4.606;2023-07-13T09:56:27;9.90;;;2.70;;
61338;SDS011;47213;52.362;4.606;2023-07-13T10:01:31;20.80;;;3.40;;
61338;SDS011;47213;52.362;4.606;2023-07-13T10:06:20;20.80;;;3.40;;
61338;SDS011;47213;52.362;4.606;2023-07-13T10:11:18;9.60;;;2.00;;
61338;SDS011;47213;52.362;4.606;2023-07-13T10:16:17;9.60;;;2.00;;
61338;SDS011;47213;52.362;4.606;2023-07-13T10:21:19;7.70;;;2.00;;
61338;SDS011;47213;52.362;4.606;2023-07-13T10:26:29;7.70;;;2.00;;
61338;SDS011;47213;52.362;4.606;2023-07-13T10:31:18;8.20;;;1.90;;
61338;SDS011;47213;52.362;4.606;2023-07-13T10:36:27;8.20;;;1.90;;
61338;SDS011;47213;52.362;4.606;2023-07-13T10:41:21;6.80;;;1.50;;
61338;SDS011;47213;52.362;4.606;2023-07-13T10:46:19;6.80;;;1.50;;
61338;SDS011;47213;52.362;4.606;2023-07-13T10:51:18;7.60;;;2.00;;
61338;SDS011;47213;52.362;4.606;2023-07-13T10:56:33;7.60;;;2.00;;
61338;SDS011;47213;52.362;4.606;2023-07-13T11:01:18;8.40;;;1.90;;
61338;SDS011;47213;52.362;4.606;2023-07-13T11:11:37;6.00;;;1.60;;
61338;SDS011;47213;52.362;4.606;2023-07-13T11:21:19;6.60;;;1.70;;
61338;SDS011;47213;52.362;4.606;2023-07-13T11:26:51;6.60;;;1.70;;
61338;SDS011;47213;52.362;4.606;2023-07-13T11:31:20;7.20;;;1.70;;
61338;SDS011;47213;52.362;4.606;2023-07-13T11:36:20;7.20;;;1.70;;
61338;SDS011;47213;52.362;4.606;2023-07-13T11:41:22;7.00;;;1.60;;
61338;SDS011;47213;52.362;4.606;2023-07-13T11:46:22;7.00;;;1.60;;
61338;SDS011;47213;52.362;4.606;2023-07-13T11:51:22;8.60;;;1.90;;
61338;SDS011;47213;52.362;4.606;2023-07-13T11:56:18;8.60;;;1.90;;
61338;SDS011;47213;52.362;4.606;2023-07-13T12:01:22;9.30;;;2.50;;
61338;SDS011;47213;52.362;4.606;2023-07-13T12:06:28;9.30;;;2.50;;
61338;SDS011;47213;52.362;4.606;2023-07-13T12:11:18;8.80;;;2.60;;
61338;SDS011;47213;52.362;4.606;2023-07-13T12:16:27;8.80;;;2.60;;
61338;SDS011;47213;52.362;4.606;2023-07-13T12:21:29;9.10;;;2.90;;
61338;SDS011;47213;52.362;4.606;2023-07-13T12:26:18;9.10;;;2.90;;
61338;SDS011;47213;52.362;4.606;2023-07-13T12:31:24;8.80;;;2.50;;
61338;SDS011;47213;52.362;4.606;2023-07-13T12:36:18;8.80;;;2.50;;
61338;SDS011;47213;52.362;4.606;2023-07-13T12:41:18;9.00;;;2.60;;
61338;SDS011;47213;52.362;4.606;2023-07-13T12:46:20;9.00;;;2.60;;
61338;SDS011;47213;52.362;4.606;2023-07-13T12:51:21;9.50;;;3.10;;
61338;SDS011;47213;52.362;4.606;2023-07-13T12:56:21;9.50;;;3.10;;
61338;SDS011;47213;52.362;4.606;2023-07-13T13:06:23;10.50;;;2.80;;
61338;SDS011;47213;52.362;4.606;2023-07-13T13:11:19;9.70;;;3.10;;
61338;SDS011;47213;52.362;4.606;2023-07-13T13:16:45;9.70;;;3.10;;
61338;SDS011;47213;52.362;4.606;2023-07-13T13:21:18;8.40;;;2.50;;
61338;SDS011;47213;52.362;4.606;2023-07-13T13:26:19;8.40;;;2.50;;
61338;SDS011;47213;52.362;4.606;2023-07-13T13:36:22;9.60;;;2.80;;
61338;SDS011;47213;52.362;4.606;2023-07-13T13:41:18;7.20;;;2.40;;
61338;SDS011;47213;52.362;4.606;2023-07-13T13:46:20;7.20;;;2.40;;
61338;SDS011;47213;52.362;4.606;2023-07-13T13:51:20;9.30;;;2.70;;
61338;SDS011;47213;52.362;4.606;2023-07-13T14:01:20;9.20;;;2.60;;
61338;SDS011;47213;52.362;4.606;2023-07-13T14:06:18;9.20;;;2.60;;
61338;SDS011;47213;52.362;4.606;2023-07-13T14:21:20;7.90;;;2.50;;
61338;SDS011;47213;52.362;4.606;2023-07-13T14:26:21;7.90;;;2.50;;
61338;SDS011;47213;52.362;4.606;2023-07-13T14:31:19;7.10;;;2.50;;
61338;SDS011;47213;52.362;4.606;2023-07-13T14:36:28;7.10;;;2.50;;
61338;SDS011;47213;52.362;4.606;2023-07-13T14:41:18;9.00;;;2.60;;
61338;SDS011;47213;52.362;4.606;2023-07-13T14:56:18;8.00;;;2.50;;
61338;SDS011;47213;52.362;4.606;2023-07-13T15:01:18;8.60;;;2.60;;
61338;SDS011;47213;52.362;4.606;2023-07-13T15:06:19;8.60;;;2.60;;
61338;SDS011;47213;52.362;4.606;2023-07-13T15:11:18;7.90;;;2.30;;
61338;SDS011;47213;52.362;4.606;2023-07-13T15:16:21;7.90;;;2.30;;
61338;SDS011;47213;52.362;4.606;2023-07-13T15:21:21;7.70;;;2.50;;
61338;SDS011;47213;52.362;4.606;2023-07-13T15:26:19;7.70;;;2.50;;
61338;SDS011;47213;52.362;4.606;2023-07-13T15:31:24;8.20;;;2.50;;
61338;SDS011;47213;52.362;4.606;2023-07-13T15:36:21;8.20;;;2.50;;
61338;SDS011;47213;52.362;4.606;2023-07-13T15:51:22;9.10;;;2.30;;
61338;SDS011;47213;52.362;4.606;2023-07-13T15:56:22;9.10;;;2.30;;
61338;SDS011;47213;52.362;4.606;2023-07-13T16:01:19;8.20;;;2.20;;
61338;SDS011;47213;52.362;4.606;2023-07-13T16:06:22;8.20;;;2.20;;
61338;SDS011;47213;52.362;4.606;2023-07-13T16:11:21;9.40;;;2.50;;
61338;SDS011;47213;52.362;4.606;2023-07-13T16:16:19;9.40;;;2.50;;
61338;SDS011;47213;52.362;4.606;2023-07-13T16:21:18;11.90;;;7.30;;
61338;SDS011;47213;52.362;4.606;2023-07-13T16:31:18;8.30;;;2.30;;
61338;SDS011;47213;52.362;4.606;2023-07-13T16:36:18;8.30;;;2.30;;
61338;SDS011;47213;52.362;4.606;2023-07-13T16:41:18;8.00;;;2.20;;
61338;SDS011;47213;52.362;4.606;2023-07-13T16:51:18;9.70;;;2.50;;
61338;SDS011;47213;52.362;4.606;2023-07-13T17:01:18;10.70;;;2.80;;
61338;SDS011;47213;52.362;4.606;2023-07-13T17:06:22;10.70;;;2.80;;
61338;SDS011;47213;52.362;4.606;2023-07-13T17:11:19;11.00;;;2.90;;
61338;SDS011;47213;52.362;4.606;2023-07-13T17:16:19;11.00;;;2.90;;
61338;SDS011;47213;52.362;4.606;2023-07-13T17:21:18;11.20;;;2.70;;
61338;SDS011;47213;52.362;4.606;2023-07-13T17:26:18;11.20;;;2.70;;
61338;SDS011;47213;52.362;4.606;2023-07-13T17:31:20;11.90;;;2.90;;
61338;SDS011;47213;52.362;4.606;2023-07-13T17:36:19;11.90;;;2.90;;
61338;SDS011;47213;52.362;4.606;2023-07-13T17:41:19;9.70;;;2.50;;
61338;SDS011;47213;52.362;4.606;2023-07-13T17:51:19;11.30;;;2.60;;
61338;SDS011;47213;52.362;4.606;2023-07-13T17:56:19;11.30;;;2.60;;
61338;SDS011;47213;52.362;4.606;2023-07-13T18:01:20;11.70;;;2.60;;
61338;SDS011;47213;52.362;4.606;2023-07-13T18:06:28;11.70;;;2.60;;
61338;SDS011;47213;52.362;4.606;2023-07-13T18:11:19;10.20;;;2.40;;
61338;SDS011;47213;52.362;4.606;2023-07-13T18:21:20;10.10;;;2.20;;
61338;SDS011;47213;52.362;4.606;2023-07-13T18:26:19;10.10;;;2.20;;
61338;SDS011;47213;52.362;4.606;2023-07-13T18:31:21;38.90;;;20.90;;
61338;SDS011;47213;52.362;4.606;2023-07-13T18:36:20;38.90;;;20.90;;
61338;SDS011;47213;52.362;4.606;2023-07-13T18:46:21;10.80;;;2.60;;
61338;SDS011;47213;52.362;4.606;2023-07-13T18:56:19;11.50;;;2.40;;
61338;SDS011;47213;52.362;4.606;2023-07-13T19:06:19;11.40;;;2.30;;
61338;SDS011;47213;52.362;4.606;2023-07-13T19:11:20;9.60;;;2.50;;
61338;SDS011;47213;52.362;4.606;2023-07-13T19:16:19;9.60;;;2.50;;
61338;SDS011;47213;52.362;4.606;2023-07-13T19:21:23;8.80;;;2.30;;
61338;SDS011;47213;52.362;4.606;2023-07-13T19:31:23;9.90;;;2.10;;
61338;SDS011;47213;52.362;4.606;2023-07-13T19:36:20;9.90;;;2.10;;
61338;SDS011;47213;52.362;4.606;2023-07-13T19:41:21;8.90;;;2.20;;
61338;SDS011;47213;52.362;4.606;2023-07-13T19:46:25;8.90;;;2.20;;
61338;SDS011;47213;52.362;4.606;2023-07-13T19:51:20;8.90;;;2.00;;
61338;SDS011;47213;52.362;4.606;2023-07-13T19:56:19;8.90;;;2.00;;
61338;SDS011;47213;52.362;4.606;2023-07-13T20:01:19;7.50;;;1.90;;
61338;SDS011;47213;52.362;4.606;2023-07-13T20:06:29;7.50;;;1.90;;
61338;SDS011;47213;52.362;4.606;2023-07-13T20:11:19;8.00;;;1.90;;
61338;SDS011;47213;52.362;4.606;2023-07-13T20:16:19;8.00;;;1.90;;
61338;SDS011;47213;52.362;4.606;2023-07-13T20:21:19;8.00;;;1.80;;
61338;SDS011;47213;52.362;4.606;2023-07-13T20:26:19;8.00;;;1.80;;
61338;SDS011;47213;52.362;4.606;2023-07-13T20:31:19;8.80;;;1.90;;
61338;SDS011;47213;52.362;4.606;2023-07-13T20:46:19;8.50;;;2.30;;
61338;SDS011;47213;52.362;4.606;2023-07-13T20:51:20;8.60;;;2.10;;
61338;SDS011;47213;52.362;4.606;2023-07-13T21:01:25;9.40;;;2.10;;
61338;SDS011;47213;52.362;4.606;2023-07-13T21:06:19;9.40;;;2.10;;
61338;SDS011;47213;52.362;4.606;2023-07-13T21:11:19;9.00;;;2.50;;
61338;SDS011;47213;52.362;4.606;2023-07-13T21:16:22;9.00;;;2.50;;
61338;SDS011;47213;52.362;4.606;2023-07-13T21:26:20;10.00;;;2.50;;
61338;SDS011;47213;52.362;4.606;2023-07-13T21:36:20;11.60;;;3.10;;
61338;SDS011;47213;52.362;4.606;2023-07-13T21:41:26;10.60;;;2.70;;
61338;SDS011;47213;52.362;4.606;2023-07-13T21:46:22;10.60;;;2.70;;
61338;SDS011;47213;52.362;4.606;2023-07-13T21:51:22;12.20;;;2.70;;
61338;SDS011;47213;52.362;4.606;2023-07-13T22:06:22;11.10;;;2.70;;
61338;SDS011;47213;52.362;4.606;2023-07-13T22:11:21;10.80;;;3.00;;
61338;SDS011;47213;52.362;4.606;2023-07-13T22:21:20;11.40;;;3.00;;
61338;SDS011;47213;52.362;4.606;2023-07-13T22:26:22;11.40;;;3.00;;
61338;SDS011;47213;52.362;4.606;2023-07-13T22:41:21;12.80;;;3.10;;
61338;SDS011;47213;52.362;4.606;2023-07-13T22:51:19;12.60;;;3.30;;
61338;SDS011;47213;52.362;4.606;2023-07-13T23:01:21;11.40;;;3.20;;
61338;SDS011;47213;52.362;4.606;2023-07-13T23:06:22;11.40;;;3.20;;
61338;SDS011;47213;52.362;4.606;2023-07-13T23:16:22;10.30;;;2.90;;
61338;SDS011;47213;52.362;4.606;2023-07-13T23:21:20;12.00;;;2.90;;
61338;SDS011;47213;52.362;4.606;2023-07-13T23:31:28;8.90;;;2.50;;
61338;SDS011;47213;52.362;4.606;2023-07-13T23:41:22;11.20;;;2.90;;
61338;SDS011;47213;52.362;4.606;2023-07-13T23:51:22;10.30;;;2.70;;
61338;SDS011;47213;52.362;4.606;2023-07-13T23:56:22;10.30;;;2.70;;
